createdAt,value
2023-05-04T00:00:48.583Z,6.80
2023-05-04T00:03:23.389Z,6.70
2023-05-04T00:05:57.571Z,6.80
2023-05-04T00:08:31.778Z,6.70
2023-05-04T00:11:05.954Z,6.60
2023-05-04T00:13:39.919Z,6.50
2023-05-04T00:16:15.360Z,6.60
2023-05-04T00:18:49.435Z,6.50
2023-05-04T00:21:23.496Z,6.50
2023-05-04T00:23:57.473Z,6.50
2023-05-04T00:26:31.521Z,6.40
2023-05-04T00:29:05.999Z,6.30
2023-05-04T00:31:41.362Z,6.40
2023-05-04T00:34:15.566Z,6.30
2023-05-04T00:36:49.664Z,6.20
2023-05-04T00:39:23.685Z,6.20
2023-05-04T00:41:57.698Z,6.10
2023-05-04T00:44:31.683Z,6.10
2023-05-04T00:47:07.447Z,6.10
2023-05-04T00:49:41.599Z,6.00
2023-05-04T00:52:16.638Z,6.00
2023-05-04T00:54:51.011Z,6.00
2023-05-04T00:57:25.097Z,6.00
2023-05-04T00:59:59.242Z,5.90
2023-05-04T01:02:34.655Z,5.90
2023-05-04T01:05:10.389Z,5.70
2023-05-04T01:07:52.959Z,5.80
2023-05-04T01:10:36.418Z,5.80
2023-05-04T01:13:14.125Z,5.70
2023-05-04T01:15:49.142Z,5.80
2023-05-04T01:18:24.517Z,5.80
2023-05-04T01:20:58.789Z,5.90
2023-05-04T01:23:34.294Z,5.80
2023-05-04T01:26:17.211Z,5.70
2023-05-04T01:28:58.100Z,5.70
2023-05-04T01:31:34.740Z,5.70
2023-05-04T01:34:09.869Z,5.60
2023-05-04T01:36:45.659Z,5.50
2023-05-04T01:39:21.537Z,5.50
2023-05-04T01:41:55.545Z,5.40
2023-05-04T01:44:29.704Z,5.40
2023-05-04T01:47:03.759Z,5.30
2023-05-04T01:49:37.820Z,5.40
2023-05-04T01:52:11.873Z,5.20
2023-05-04T01:54:47.167Z,5.20
2023-05-04T01:57:21.387Z,5.30
2023-05-04T01:59:55.408Z,5.30
2023-05-04T02:02:29.433Z,5.20
2023-05-04T02:05:03.467Z,5.20
2023-05-04T02:07:37.809Z,5.30
2023-05-04T02:10:13.524Z,5.20
2023-05-04T02:12:47.555Z,5.20
2023-05-04T02:15:21.723Z,5.20
2023-05-04T02:17:55.819Z,5.20
2023-05-04T02:20:29.889Z,5.20
2023-05-04T02:23:03.903Z,5.10
2023-05-04T02:25:42.383Z,5.00
2023-05-04T02:28:16.728Z,5.10
2023-05-04T02:30:50.745Z,5.20
2023-05-04T02:33:24.755Z,5.10
2023-05-04T02:35:58.742Z,5.10
2023-05-04T02:38:32.854Z,5.10
2023-05-04T02:41:08.207Z,5.10
2023-05-04T02:43:42.197Z,5.10
2023-05-04T02:46:16.261Z,5.00
2023-05-04T02:48:50.321Z,5.00
2023-05-04T02:51:24.331Z,4.90
2023-05-04T02:53:58.354Z,4.90
2023-05-04T02:56:33.702Z,4.80
2023-05-04T02:59:07.752Z,4.80
2023-05-04T03:01:41.826Z,4.80
2023-05-04T03:04:16.028Z,4.70
2023-05-04T03:06:50.055Z,4.80
2023-05-04T03:09:24.088Z,4.80
2023-05-04T03:11:59.454Z,4.80
2023-05-04T03:14:33.509Z,4.80
2023-05-04T03:17:07.935Z,4.80
2023-05-04T03:19:42.675Z,4.60
2023-05-04T03:22:16.674Z,4.50
2023-05-04T03:24:50.752Z,4.50
2023-05-04T03:27:26.325Z,4.60
2023-05-04T03:30:00.284Z,4.70
2023-05-04T03:32:34.307Z,4.80
2023-05-04T03:35:09.213Z,4.70
2023-05-04T03:37:43.237Z,4.70
2023-05-04T03:40:22.296Z,4.60
2023-05-04T03:42:57.612Z,4.50
2023-05-04T03:45:31.599Z,4.50
2023-05-04T03:48:05.880Z,4.60
2023-05-04T03:50:39.987Z,4.50
2023-05-04T03:53:13.974Z,4.50
2023-05-04T03:55:48.221Z,4.50
2023-05-04T03:58:23.605Z,4.40
2023-05-04T04:00:57.618Z,4.40
2023-05-04T04:03:31.978Z,4.50
2023-05-04T04:06:08.095Z,4.50
2023-05-04T04:08:42.031Z,4.60
2023-05-04T04:11:16.656Z,4.50
2023-05-04T04:13:51.969Z,4.50
2023-05-04T04:16:26.175Z,4.50
2023-05-04T04:19:01.821Z,4.50
2023-05-04T04:21:35.918Z,4.50
2023-05-04T04:24:09.921Z,4.50
2023-05-04T04:26:44.199Z,4.50
2023-05-04T04:29:19.607Z,4.50
2023-05-04T04:31:53.676Z,4.60
2023-05-04T04:34:27.818Z,4.60
2023-05-04T04:37:01.912Z,4.70
2023-05-04T04:39:36.016Z,4.70
2023-05-04T04:42:10.016Z,4.70
2023-05-04T04:44:45.661Z,4.70
2023-05-04T04:47:19.718Z,4.70
2023-05-04T04:49:53.974Z,4.70
2023-05-04T04:52:28.200Z,4.80
2023-05-04T04:55:04.273Z,4.90
2023-05-04T04:57:38.381Z,4.90
2023-05-04T05:00:15.346Z,4.90
2023-05-04T05:02:49.746Z,4.90
2023-05-04T05:05:24.213Z,5.00
2023-05-04T05:07:59.274Z,5.00
2023-05-04T05:10:33.432Z,5.10
2023-05-04T05:13:07.954Z,5.20
2023-05-04T05:15:43.404Z,5.30
2023-05-04T05:18:17.453Z,5.40
2023-05-04T05:20:51.680Z,5.60
2023-05-04T05:23:25.792Z,5.60
2023-05-04T05:26:01.946Z,5.70
2023-05-04T05:28:37.252Z,5.90
2023-05-04T05:31:12.687Z,6.10
2023-05-04T05:33:46.778Z,6.20
2023-05-04T05:36:21.438Z,6.40
2023-05-04T05:38:55.501Z,6.60
2023-05-04T05:41:29.501Z,6.80
2023-05-04T05:44:03.640Z,7.10
2023-05-04T05:46:39.127Z,7.20
2023-05-04T05:49:13.312Z,7.30
2023-05-04T05:51:47.925Z,7.50
2023-05-04T05:54:23.028Z,7.70
2023-05-04T05:56:57.076Z,7.80
2023-05-04T05:59:31.103Z,8.00
2023-05-04T06:02:06.927Z,8.20
2023-05-04T06:04:40.934Z,8.40
2023-05-04T06:07:15.024Z,8.60
2023-05-04T06:09:49.046Z,8.90
2023-05-04T06:12:23.221Z,9.20
2023-05-04T06:14:57.230Z,9.40
2023-05-04T06:17:32.644Z,9.50
2023-05-04T06:20:08.668Z,9.70
2023-05-04T06:22:42.756Z,9.80
2023-05-04T06:25:16.924Z,9.90
2023-05-04T06:27:50.915Z,10.10
2023-05-04T06:30:24.909Z,10.30
2023-05-04T06:33:00.300Z,10.40
2023-05-04T06:35:34.351Z,10.50
2023-05-04T06:38:08.411Z,10.60
2023-05-04T06:40:42.417Z,10.70
2023-05-04T06:43:16.422Z,10.90
2023-05-04T06:45:50.504Z,11.00
2023-05-04T06:48:25.862Z,11.20
2023-05-04T06:51:01.521Z,11.30
2023-05-04T06:53:36.948Z,11.50
2023-05-04T06:56:11.074Z,11.60
2023-05-04T06:58:45.122Z,11.70
2023-05-04T07:01:19.118Z,11.80
2023-05-04T07:03:54.537Z,12.00
2023-05-04T07:06:29.486Z,12.10
2023-05-04T07:09:03.691Z,12.30
2023-05-04T07:11:37.806Z,12.50
2023-05-04T07:14:12.332Z,12.70
2023-05-04T07:16:46.389Z,12.90
2023-05-04T07:19:21.801Z,13.00
2023-05-04T07:21:57.238Z,13.10
2023-05-04T07:24:31.557Z,13.20
2023-05-04T07:27:05.886Z,13.40
2023-05-04T07:29:39.930Z,13.50
2023-05-04T07:32:14.005Z,13.70
2023-05-04T07:34:49.476Z,13.90
2023-05-04T07:37:23.501Z,14.00
2023-05-04T07:39:57.632Z,14.10
2023-05-04T07:42:31.625Z,14.30
2023-05-04T07:45:08.325Z,14.40
2023-05-04T07:47:42.470Z,14.50
2023-05-04T07:50:18.152Z,14.60
2023-05-04T07:52:52.278Z,14.60
2023-05-04T07:55:28.917Z,14.80
2023-05-04T07:58:02.929Z,14.90
2023-05-04T08:00:37.176Z,15.00
2023-05-04T08:03:11.239Z,15.10
2023-05-04T08:05:46.838Z,15.00
2023-05-04T08:08:21.778Z,15.30
2023-05-04T08:11:02.022Z,15.50
2023-05-04T08:13:42.558Z,15.70
2023-05-04T08:16:16.946Z,15.80
2023-05-04T08:18:50.984Z,16.00
2023-05-04T08:21:26.392Z,16.30
2023-05-04T08:24:00.372Z,16.30
2023-05-04T08:26:34.594Z,16.40
2023-05-04T08:29:10.604Z,16.40
2023-05-04T08:31:44.935Z,16.70
2023-05-04T08:34:19.012Z,16.80
2023-05-04T08:36:54.509Z,16.90
2023-05-04T08:39:28.504Z,17.10
2023-05-04T08:42:03.613Z,17.20
2023-05-04T08:44:37.689Z,17.40
2023-05-04T08:47:12.344Z,17.50
2023-05-04T08:49:46.460Z,17.70
2023-05-04T08:52:25.400Z,17.90
2023-05-04T08:55:00.384Z,18.00
2023-05-04T08:57:35.735Z,18.20
2023-05-04T09:00:15.082Z,18.40
2023-05-04T09:02:51.362Z,18.50
2023-05-04T09:05:25.650Z,18.60
2023-05-04T09:08:01.131Z,18.60
2023-05-04T09:10:36.595Z,18.80
2023-05-04T09:13:10.687Z,18.90
2023-05-04T09:15:55.804Z,19.10
2023-05-04T09:18:38.816Z,19.10
2023-05-04T09:21:13.423Z,19.20
2023-05-04T09:23:51.280Z,19.20
2023-05-04T09:26:29.623Z,19.20
2023-05-04T09:29:13.335Z,19.20
2023-05-04T09:31:49.551Z,19.40
2023-05-04T09:34:23.664Z,19.40
2023-05-04T09:37:01.709Z,19.60
2023-05-04T09:39:37.169Z,19.50
2023-05-04T09:42:18.694Z,19.50
2023-05-04T09:45:04.172Z,19.50
2023-05-04T09:47:39.762Z,19.50
2023-05-04T09:50:19.828Z,19.60
2023-05-04T09:52:56.128Z,19.80
2023-05-04T09:55:32.023Z,19.80
2023-05-04T09:58:06.576Z,19.90
2023-05-04T10:00:40.866Z,20.00
2023-05-04T10:03:15.693Z,20.10
2023-05-04T10:05:51.081Z,20.10
2023-05-04T10:08:25.391Z,20.20
2023-05-04T10:11:00.978Z,20.30
2023-05-04T10:13:35.137Z,20.30
2023-05-04T10:16:29.032Z,20.40
2023-05-04T10:19:25.552Z,20.50
2023-05-04T10:22:16.490Z,20.50
2023-05-04T10:25:14.483Z,20.60
2023-05-04T10:28:07.616Z,20.60
2023-05-04T10:30:41.862Z,20.80
2023-05-04T10:33:16.356Z,20.70
2023-05-04T10:35:54.361Z,20.80
2023-05-04T10:38:33.928Z,20.80
2023-05-04T10:41:18.576Z,20.60
2023-05-04T10:44:04.568Z,20.70
2023-05-04T10:46:38.595Z,20.80
2023-05-04T10:49:17.740Z,20.90
2023-05-04T10:51:52.296Z,21.20
2023-05-04T10:54:26.444Z,21.20
2023-05-04T10:57:09.058Z,21.40
2023-05-04T10:59:55.764Z,21.50
2023-05-04T11:02:32.438Z,21.50
2023-05-04T11:05:27.475Z,21.50
2023-05-04T11:08:01.641Z,21.50
2023-05-04T11:10:35.837Z,21.60
2023-05-04T11:13:13.011Z,21.70
2023-05-04T11:15:51.434Z,21.80
2023-05-04T11:18:30.931Z,21.70
2023-05-04T11:21:05.496Z,21.90
2023-05-04T11:23:40.606Z,21.90
2023-05-04T11:26:14.850Z,22.10
2023-05-04T11:28:49.002Z,22.10
2023-05-04T11:31:24.540Z,22.10
2023-05-04T11:33:58.668Z,22.10
2023-05-04T11:36:38.583Z,22.00
2023-05-04T11:39:12.626Z,22.00
2023-05-04T11:41:46.726Z,22.00
2023-05-04T11:44:20.826Z,22.20
2023-05-04T11:46:56.723Z,22.30
2023-05-04T11:49:32.381Z,22.10
2023-05-04T11:52:07.857Z,22.20
2023-05-04T11:54:42.629Z,22.30
2023-05-04T11:57:23.437Z,22.40
2023-05-04T11:59:57.591Z,22.20
2023-05-04T12:02:33.100Z,22.20
2023-05-04T12:05:14.948Z,22.40
2023-05-04T12:07:49.096Z,22.30
2023-05-04T12:10:28.211Z,22.40
2023-05-04T12:13:02.360Z,22.40
2023-05-04T12:15:37.556Z,22.50
2023-05-04T12:18:29.325Z,22.50
2023-05-04T12:21:10.535Z,22.50
2023-05-04T12:23:44.784Z,22.40
2023-05-04T12:26:19.792Z,22.50
2023-05-04T12:28:54.356Z,22.40
2023-05-04T12:31:29.258Z,22.40
2023-05-04T12:34:04.698Z,22.60
2023-05-04T12:36:38.807Z,22.70
2023-05-04T12:39:12.849Z,22.70
2023-05-04T12:41:47.085Z,22.70
2023-05-04T12:44:21.299Z,22.80
2023-05-04T12:46:55.471Z,22.80
2023-05-04T12:49:30.926Z,22.70
2023-05-04T12:52:05.208Z,22.80
2023-05-04T12:54:39.270Z,22.90
2023-05-04T12:57:13.320Z,22.90
2023-05-04T12:59:47.333Z,22.80
2023-05-04T13:02:21.533Z,22.70
2023-05-04T13:04:56.931Z,22.90
2023-05-04T13:07:31.321Z,22.70
2023-05-04T13:10:06.236Z,22.80
2023-05-04T13:12:40.534Z,22.90
2023-05-04T13:15:14.789Z,23.00
2023-05-04T13:17:48.844Z,23.00
2023-05-04T13:20:25.144Z,23.10
2023-05-04T13:22:59.358Z,23.10
2023-05-04T13:25:33.667Z,23.30
2023-05-04T13:28:07.756Z,23.30
2023-05-04T13:30:42.490Z,23.50
2023-05-04T13:33:28.280Z,23.60
2023-05-04T13:36:06.011Z,23.70
2023-05-04T13:38:40.031Z,23.80
2023-05-04T13:41:14.336Z,23.90
2023-05-04T13:43:49.248Z,24.00
2023-05-04T13:46:23.296Z,23.90
2023-05-04T13:48:57.360Z,24.10
2023-05-04T13:51:32.974Z,24.20
2023-05-04T13:54:07.412Z,24.30
2023-05-04T13:56:41.665Z,24.30
2023-05-04T13:59:15.820Z,24.30
2023-05-04T14:01:49.987Z,24.40
2023-05-04T14:04:24.363Z,24.50
2023-05-04T14:06:59.774Z,24.70
2023-05-04T14:09:33.784Z,24.80
2023-05-04T14:12:07.953Z,24.90
2023-05-04T14:14:41.952Z,24.80
2023-05-04T14:17:15.972Z,24.90
2023-05-04T14:19:50.108Z,24.90
2023-05-04T14:22:25.444Z,25.00
2023-05-04T14:24:59.788Z,25.00
2023-05-04T14:27:34.485Z,24.80
2023-05-04T14:30:10.490Z,24.80
2023-05-04T14:32:44.574Z,24.80
2023-05-04T14:35:18.608Z,24.80
2023-05-04T14:37:54.210Z,24.90
2023-05-04T14:40:28.239Z,24.90
2023-05-04T14:43:02.295Z,25.10
2023-05-04T14:45:36.376Z,25.00
2023-05-04T14:48:10.505Z,24.80
2023-05-04T14:50:44.626Z,24.80
2023-05-04T14:53:21.630Z,25.00
2023-05-04T14:55:55.671Z,24.90
2023-05-04T14:58:29.820Z,24.70
2023-05-04T15:01:03.833Z,24.60
2023-05-04T15:03:38.017Z,24.40
2023-05-04T15:06:12.355Z,24.40
2023-05-04T15:08:47.746Z,24.70
2023-05-04T15:11:21.816Z,24.70
2023-05-04T15:13:58.056Z,24.80
2023-05-04T15:16:33.165Z,24.90
2023-05-04T15:19:08.030Z,24.90
2023-05-04T15:21:42.224Z,24.70
2023-05-04T15:24:17.631Z,24.60
2023-05-04T15:26:51.745Z,24.70
2023-05-04T15:29:26.064Z,24.90
2023-05-04T15:32:00.328Z,25.00
2023-05-04T15:34:34.504Z,24.70
2023-05-04T15:37:08.556Z,24.40
2023-05-04T15:39:43.896Z,24.10
2023-05-04T15:42:18.008Z,23.90
2023-05-04T15:44:52.947Z,23.80
2023-05-04T15:47:27.036Z,23.60
2023-05-04T15:50:01.077Z,23.60
2023-05-04T15:52:35.128Z,23.60
2023-05-04T15:55:24.383Z,23.80
2023-05-04T15:57:59.136Z,23.60
2023-05-04T16:00:34.222Z,23.60
2023-05-04T16:03:08.804Z,23.50
2023-05-04T16:05:43.796Z,23.50
2023-05-04T16:08:17.979Z,23.40
2023-05-04T16:10:54.341Z,23.30
2023-05-04T16:13:28.385Z,23.20
2023-05-04T16:16:03.318Z,23.10
2023-05-04T16:18:37.424Z,23.10
2023-05-04T16:21:14.019Z,23.00
2023-05-04T16:23:48.096Z,23.00
2023-05-04T16:26:23.654Z,22.90
2023-05-04T16:28:57.701Z,22.70
2023-05-04T16:31:31.833Z,22.60
2023-05-04T16:34:05.990Z,22.50
2023-05-04T16:36:40.045Z,22.50
2023-05-04T16:39:14.554Z,22.30
2023-05-04T16:41:49.914Z,22.20
2023-05-04T16:44:24.055Z,22.10
2023-05-04T16:46:58.189Z,22.00
2023-05-04T16:49:32.326Z,21.90
2023-05-04T16:52:06.687Z,21.80
2023-05-04T16:54:41.314Z,21.80
2023-05-04T16:57:16.760Z,21.80
2023-05-04T16:59:50.831Z,21.60
2023-05-04T17:02:25.775Z,21.60
2023-05-04T17:04:59.874Z,21.50
2023-05-04T17:07:34.276Z,21.50
2023-05-04T17:10:10.561Z,21.50
2023-05-04T17:12:46.132Z,21.40
2023-05-04T17:15:20.162Z,21.30
2023-05-04T17:17:55.599Z,21.30
2023-05-04T17:20:31.863Z,21.20
2023-05-04T17:23:06.171Z,21.00
2023-05-04T17:25:40.338Z,21.00
2023-05-04T17:28:15.782Z,20.80
2023-05-04T17:30:49.867Z,20.80
2023-05-04T17:33:25.047Z,20.70
2023-05-04T17:35:59.114Z,20.70
2023-05-04T17:38:33.216Z,20.60
2023-05-04T17:41:09.707Z,20.60
2023-05-04T17:43:45.711Z,20.50
2023-05-04T17:46:19.819Z,20.50
2023-05-04T17:48:54.561Z,20.40
2023-05-04T17:51:28.579Z,20.30
2023-05-04T17:54:02.814Z,20.30
2023-05-04T17:56:36.887Z,20.20
2023-05-04T17:59:12.301Z,20.10
2023-05-04T18:01:47.133Z,20.00
2023-05-04T18:04:21.203Z,19.90
2023-05-04T18:06:55.259Z,19.80
2023-05-04T18:09:29.309Z,19.70
2023-05-04T18:12:03.351Z,19.60
2023-05-04T18:14:38.729Z,19.50
2023-05-04T18:17:12.832Z,19.40
2023-05-04T18:19:46.863Z,19.30
2023-05-04T18:22:20.954Z,19.20
2023-05-04T18:24:54.963Z,19.00
2023-05-04T18:27:33.364Z,18.90
2023-05-04T18:30:10.909Z,18.80
2023-05-04T18:32:44.972Z,18.70
2023-05-04T18:35:19.318Z,18.60
2023-05-04T18:37:53.325Z,18.50
2023-05-04T18:40:27.543Z,18.50
2023-05-04T18:43:01.593Z,18.30
2023-05-04T18:45:36.980Z,18.20
2023-05-04T18:48:11.090Z,18.10
2023-05-04T18:50:53.952Z,18.00
2023-05-04T18:53:28.094Z,18.00
2023-05-04T18:56:03.737Z,17.90
2023-05-04T18:58:38.912Z,17.80
2023-05-04T19:01:14.343Z,17.70
2023-05-04T19:03:48.417Z,17.60
2023-05-04T19:06:22.483Z,17.50
2023-05-04T19:08:56.586Z,17.30
2023-05-04T19:11:30.663Z,17.20
2023-05-04T19:14:04.710Z,17.10
2023-05-04T19:16:40.211Z,16.90
2023-05-04T19:19:14.260Z,16.80
2023-05-04T19:21:50.598Z,16.70
2023-05-04T19:24:24.631Z,16.70
2023-05-04T19:26:59.529Z,16.60
2023-05-04T19:29:33.562Z,16.50
2023-05-04T19:32:22.611Z,16.60
2023-05-04T19:34:57.876Z,16.40
2023-05-04T19:37:32.666Z,16.40
2023-05-04T19:40:08.933Z,16.40
2023-05-04T19:42:46.114Z,16.40
2023-05-04T19:45:20.349Z,16.30
2023-05-04T19:47:55.805Z,16.20
2023-05-04T19:50:30.309Z,16.00
2023-05-04T19:53:04.667Z,16.00
2023-05-04T19:55:38.806Z,15.80
2023-05-04T19:58:13.441Z,15.80
2023-05-04T20:00:47.545Z,15.70
2023-05-04T20:03:22.961Z,15.70
2023-05-04T20:05:57.086Z,15.60
2023-05-04T20:08:31.174Z,15.50
2023-05-04T20:11:05.522Z,15.50
2023-05-04T20:13:39.590Z,15.50
2023-05-04T20:16:13.907Z,15.30
2023-05-04T20:18:49.432Z,15.30
2023-05-04T20:21:23.499Z,15.20
2023-05-04T20:23:57.692Z,15.10
2023-05-04T20:26:31.816Z,15.10
2023-05-04T20:29:06.051Z,15.00
2023-05-04T20:31:41.302Z,15.00
2023-05-04T20:34:18.310Z,14.80
2023-05-04T20:36:52.966Z,14.80
2023-05-04T20:39:27.096Z,14.80
2023-05-04T20:42:01.406Z,14.60
2023-05-04T20:44:35.505Z,14.50
2023-05-04T20:47:10.118Z,14.50
2023-05-04T20:49:45.776Z,14.50
2023-05-04T20:52:19.844Z,14.40
2023-05-04T20:54:54.661Z,14.30
2023-05-04T20:57:28.688Z,14.30
2023-05-04T21:00:03.092Z,14.20
2023-05-04T21:02:37.160Z,14.20
2023-05-04T21:05:12.863Z,14.10
2023-05-04T21:07:47.120Z,14.10
2023-05-04T21:10:21.699Z,14.00
2023-05-04T21:12:56.924Z,14.00
2023-05-04T21:15:30.933Z,14.00
2023-05-04T21:18:05.578Z,13.90
2023-05-04T21:20:41.479Z,13.90
2023-05-04T21:23:15.525Z,13.90
2023-05-04T21:25:49.588Z,13.80
2023-05-04T21:28:23.592Z,13.80
2023-05-04T21:30:57.642Z,13.70
2023-05-04T21:33:31.614Z,13.70
2023-05-04T21:36:14.288Z,13.60
2023-05-04T21:38:48.324Z,13.50
2023-05-04T21:41:22.698Z,13.40
2023-05-04T21:43:56.770Z,13.30
2023-05-04T21:46:30.819Z,13.20
2023-05-04T21:49:04.830Z,13.40
2023-05-04T21:51:40.531Z,13.20
2023-05-04T21:54:14.854Z,13.20
2023-05-04T21:56:48.925Z,13.10
2023-05-04T21:59:22.943Z,13.10
2023-05-04T22:01:57.396Z,13.10
2023-05-04T22:04:31.613Z,13.10
2023-05-04T22:07:07.074Z,13.10
2023-05-04T22:09:41.085Z,13.00
2023-05-04T22:12:15.643Z,13.10
2023-05-04T22:14:49.662Z,13.00
2023-05-04T22:17:23.734Z,12.90
2023-05-04T22:19:57.793Z,12.90
2023-05-04T22:22:33.190Z,12.80
2023-05-04T22:25:08.061Z,12.70
2023-05-04T22:27:42.073Z,12.70
2023-05-04T22:30:17.284Z,12.60
2023-05-04T22:32:51.347Z,12.50
2023-05-04T22:35:25.557Z,12.50
2023-05-04T22:38:01.034Z,12.50
2023-05-04T22:40:35.359Z,12.50
2023-05-04T22:43:10.240Z,12.50
2023-05-04T22:45:44.257Z,12.40
2023-05-04T22:48:20.019Z,12.40
2023-05-04T22:50:54.956Z,12.40
2023-05-04T22:53:30.285Z,12.40
2023-05-04T22:56:04.544Z,12.30
2023-05-04T22:58:38.577Z,12.20
2023-05-04T23:01:13.053Z,12.20
2023-05-04T23:03:47.237Z,12.10
2023-05-04T23:06:21.329Z,12.10
2023-05-04T23:08:56.662Z,12.10
2023-05-04T23:11:30.716Z,12.10
2023-05-04T23:14:04.702Z,12.00
2023-05-04T23:16:38.769Z,12.00
2023-05-04T23:19:12.974Z,11.90
2023-05-04T23:21:47.049Z,11.90
2023-05-04T23:24:22.421Z,11.90
2023-05-04T23:26:56.430Z,11.90
2023-05-04T23:29:30.455Z,11.90
2023-05-04T23:32:04.669Z,11.80
2023-05-04T23:34:38.766Z,11.80
2023-05-04T23:37:12.829Z,11.80
2023-05-04T23:39:48.276Z,11.70
2023-05-04T23:42:22.296Z,11.70
2023-05-04T23:44:56.494Z,11.70
2023-05-04T23:47:30.694Z,11.60
2023-05-04T23:50:05.197Z,11.60
2023-05-04T23:52:39.489Z,11.70
2023-05-04T23:55:15.012Z,11.70
2023-05-04T23:57:49.238Z,11.70
